Time;durP1;ratioP1;P1;durP2;ratioP2;P2;SDS_P1;SDS_P2;PMS_P1;PMS_P2;Temp;Humidity;BMP_temperature;BMP_pressure;BME280_temperature;BME280_humidity;BME280_pressure;Samples;Min_cycle;Max_cycle;Signal;HPM_P1;HPM_P2
2022/01/21 00:01:24;;;;;;;4.60;1.60;;;16.90;48.20;;;;;;4992043;28;95448;-75
2022/01/21 00:03:50;;;;;;;3.88;1.70;;;16.90;48.20;;;;;;4994130;28;96207;-75
2022/01/21 00:06:16;;;;;;;5.60;1.98;;;16.90;48.10;;;;;;4995729;28;93102;-76
2022/01/21 00:08:45;;;;;;;6.00;1.98;;;16.90;48.10;;;;;;4995108;28;93028;-76
2022/01/21 00:11:12;;;;;;;3.58;1.50;;;16.90;49.00;;;;;;4992736;28;93017;-76
2022/01/21 00:13:38;;;;;;;4.18;1.35;;;16.80;48.10;;;;;;4991878;28;92892;-75
2022/01/21 00:16:16;;;;;;;3.60;1.60;;;16.80;48.10;;;;;;4991017;28;93073;-75
2022/01/21 00:18:51;;;;;;;3.47;1.40;;;16.80;48.00;;;;;;4991868;28;92333;-75
2022/01/21 00:32:13;;;;;;;4.88;1.48;;;16.80;48.00;;;;;;4990798;28;92598;-75
2022/01/21 00:34:39;;;;;;;4.40;1.65;;;16.80;48.00;;;;;;4990521;28;92843;-75
2022/01/21 00:37:05;;;;;;;4.30;1.38;;;16.80;47.90;;;;;;4991067;28;92528;-75
2022/01/21 00:39:34;;;;;;;6.78;1.90;;;16.80;48.00;;;;;;4991738;28;93101;-75
2022/01/21 00:44:53;;;;;;;5.78;1.50;;;16.70;47.90;;;;;;4944072;28;93546;-75
2022/01/21 00:47:19;;;;;;;3.85;1.30;;;16.80;47.90;;;;;;4991391;28;92553;-75
2022/01/21 00:49:45;;;;;;;5.43;1.50;;;16.70;47.90;;;;;;4990868;28;92775;-74
2022/01/21 00:52:11;;;;;;;5.63;1.52;;;16.70;47.90;;;;;;4988423;28;95403;-75
2022/01/21 00:54:37;;;;;;;5.95;1.88;;;16.70;48.00;;;;;;4991598;28;95686;-75
2022/01/21 00:57:03;;;;;;;3.92;1.42;;;16.70;48.00;;;;;;4991202;28;93090;-75
2022/01/21 00:59:29;;;;;;;5.15;1.45;;;16.70;48.10;;;;;;4991920;28;92623;-75
2022/01/21 01:01:55;;;;;;;3.00;1.20;;;16.70;48.10;;;;;;4991016;28;93442;-75
2022/01/21 01:04:20;;;;;;;4.80;1.50;;;16.70;48.10;;;;;;4990623;28;100792;-75
2022/01/21 01:06:46;;;;;;;3.85;1.60;;;16.70;48.30;;;;;;4990402;28;92551;-75
2022/01/21 01:09:12;;;;;;;4.28;1.55;;;16.70;48.20;;;;;;4991709;28;92200;-75
2022/01/21 01:12:12;;;;;;;3.45;1.27;;;16.60;48.20;;;;;;4989886;28;94311;-75
2022/01/21 01:20:07;;;;;;;3.85;1.40;;;16.60;48.20;;;;;;4990674;28;92943;-75
2022/01/21 01:23:07;;;;;;;4.63;1.55;;;16.60;49.20;;;;;;4990482;28;92658;-74
2022/01/21 01:28:08;;;;;;;3.97;1.45;;;16.60;48.20;;;;;;4989947;28;92689;-75
2022/01/21 01:30:36;;;;;;;4.32;1.23;;;16.60;48.30;;;;;;4991066;28;93028;-75
2022/01/21 01:33:06;;;;;;;3.15;1.30;;;16.60;48.30;;;;;;4990359;28;93803;-75
2022/01/21 01:35:33;;;;;;;3.60;1.40;;;16.60;48.20;;;;;;4991279;28;93891;-75
2022/01/21 01:40:44;;;;;;;4.85;1.50;;;16.60;48.10;;;;;;4990357;28;92557;-75
2022/01/21 01:51:17;;;;;;;4.40;1.23;;;16.60;47.90;;;;;;4975241;28;92495;-75
2022/01/21 01:53:55;;;;;;;2.20;0.80;;;16.60;47.90;;;;;;4990312;28;92962;-75
2022/01/21 01:56:25;;;;;;;3.65;1.10;;;16.60;47.90;;;;;;4989107;28;92761;-75
2022/01/21 01:58:51;;;;;;;2.97;1.15;;;16.60;47.80;;;;;;4989755;28;92605;-76
2022/01/21 02:01:17;;;;;;;2.53;1.10;;;16.60;47.70;;;;;;4991319;28;91786;-76
2022/01/21 02:03:42;;;;;;;2.67;1.15;;;16.60;47.70;;;;;;4990240;28;93229;-75
2022/01/21 02:06:08;;;;;;;3.38;1.00;;;16.60;47.80;;;;;;4990033;28;94419;-76
2022/01/21 02:08:35;;;;;;;2.95;1.13;;;16.60;47.80;;;;;;4989784;28;94906;-75
2022/01/21 02:11:01;;;;;;;3.92;1.27;;;16.60;47.80;;;;;;4989297;28;92581;-74
2022/01/21 02:13:34;;;;;;;2.75;1.33;;;16.60;47.80;;;;;;4989797;28;93051;-75
2022/01/21 02:16:13;;;;;;;2.90;1.15;;;16.60;47.70;;;;;;4989177;28;94284;-75
2022/01/21 02:23:57;;;;;;;2.85;1.10;;;16.60;47.50;;;;;;4989449;28;93044;-75
2022/01/21 02:26:23;;;;;;;2.30;0.93;;;16.60;47.40;;;;;;4990447;28;93952;-74
2022/01/21 02:28:49;;;;;;;2.75;1.02;;;16.60;47.40;;;;;;4989689;28;92522;-75
2022/01/21 02:31:14;;;;;;;2.83;1.08;;;16.70;47.50;;;;;;4990739;28;93110;-75
2022/01/21 02:33:40;;;;;;;2.90;1.10;;;16.70;47.40;;;;;;4987776;28;104253;-75
2022/01/21 02:36:05;;;;;;;3.65;1.10;;;16.70;47.30;;;;;;4988510;28;95609;-75
2022/01/21 02:38:31;;;;;;;2.20;0.88;;;16.70;47.30;;;;;;4971760;28;93293;-75
2022/01/21 02:40:57;;;;;;;3.35;1.20;;;16.70;47.30;;;;;;4993430;28;92667;-75
2022/01/21 02:43:23;;;;;;;2.72;0.95;;;16.80;47.40;;;;;;4992939;28;93169;-75
2022/01/21 02:45:48;;;;;;;2.63;1.13;;;16.80;47.20;;;;;;4993172;28;92603;-75
2022/01/21 02:48:14;;;;;;;1.95;0.80;;;16.80;47.20;;;;;;4994420;28;92892;-75
2022/01/21 02:50:40;;;;;;;4.55;1.15;;;16.80;47.10;;;;;;4993944;28;91855;-75
2022/01/21 02:55:44;;;;;;;4.00;1.20;;;16.90;47.00;;;;;;4992600;28;92564;-75
2022/01/21 02:58:09;;;;;;;2.95;1.00;;;16.90;47.00;;;;;;4992435;28;95146;-75
2022/01/21 03:00:35;;;;;;;4.18;0.95;;;16.90;46.80;;;;;;4994365;28;92862;-75
2022/01/21 03:03:04;;;;;;;2.72;1.00;;;16.90;46.80;;;;;;4993622;28;93110;-75
2022/01/21 03:05:31;;;;;;;3.03;0.93;;;16.90;46.80;;;;;;4993674;28;94286;-75
2022/01/21 03:07:56;;;;;;;2.85;1.00;;;16.90;46.90;;;;;;4994046;28;92767;-75
2022/01/21 03:10:22;;;;;;;3.05;1.10;;;17.00;46.80;;;;;;4994463;28;94127;-75
2022/01/21 03:12:48;;;;;;;2.35;1.00;;;17.00;46.80;;;;;;4993861;28;93560;-75
2022/01/21 03:15:14;;;;;;;2.20;0.90;;;17.00;46.70;;;;;;4994557;28;94642;-75
2022/01/21 03:17:40;;;;;;;2.17;0.80;;;17.00;46.70;;;;;;4993582;28;92534;-75
2022/01/21 03:20:06;;;;;;;2.97;0.98;;;17.00;46.70;;;;;;4993121;28;92932;-75
2022/01/21 03:22:32;;;;;;;3.35;0.95;;;17.00;46.70;;;;;;4974060;28;96135;-75
2022/01/21 03:24:58;;;;;;;2.47;0.93;;;17.00;46.70;;;;;;4974929;28;98503;-75
2022/01/21 03:27:24;;;;;;;3.40;0.95;;;17.00;46.70;;;;;;4993165;28;92633;-75
2022/01/21 03:29:49;;;;;;;2.30;0.90;;;17.00;46.70;;;;;;4992561;28;92907;-75
2022/01/21 03:32:15;;;;;;;2.47;1.00;;;17.00;46.70;;;;;;4992377;28;93839;-75
2022/01/21 03:34:41;;;;;;;1.73;0.80;;;17.00;46.70;;;;;;4993060;28;93026;-75
2022/01/21 03:37:06;;;;;;;3.33;1.00;;;17.00;46.60;;;;;;4993932;28;92801;-75
2022/01/21 03:39:33;;;;;;;2.45;0.88;;;17.00;46.60;;;;;;4993956;28;92239;-76
2022/01/21 03:41:58;;;;;;;2.83;0.90;;;17.00;46.70;;;;;;4974389;28;96524;-76
2022/01/21 03:44:24;;;;;;;2.47;0.90;;;17.00;46.80;;;;;;4990727;28;98301;-75
2022/01/21 03:46:50;;;;;;;4.05;1.02;;;17.00;46.70;;;;;;4991640;28;94940;-74
2022/01/21 03:49:16;;;;;;;4.28;1.05;;;17.00;46.70;;;;;;4992508;28;93121;-75
2022/01/21 03:51:41;;;;;;;4.47;1.10;;;17.00;46.70;;;;;;4992115;28;93161;-75
2022/01/21 03:54:07;;;;;;;2.78;1.00;;;17.00;46.70;;;;;;4992524;28;92876;-75
2022/01/21 03:56:35;;;;;;;3.17;0.93;;;17.00;46.70;;;;;;4992806;28;92559;-75
2022/01/21 03:59:02;;;;;;;4.45;1.17;;;17.00;46.80;;;;;;4993145;28;93082;-75
2022/01/21 05:44:15;;;;;;;2.90;0.98;;;18.30;44.40;;;;;;4618903;22;94876;-75
2022/01/21 05:46:55;;;;;;;2.95;0.75;;;18.40;45.50;;;;;;4990939;28;93613;-75
2022/01/21 05:49:22;;;;;;;2.95;0.98;;;18.30;44.50;;;;;;4990713;28;92655;-75
2022/01/21 05:51:48;;;;;;;1.98;0.90;;;18.30;44.50;;;;;;4990370;28;93189;-75
2022/01/21 05:54:14;;;;;;;1.77;0.45;;;18.30;44.50;;;;;;4991104;28;92392;-74
2022/01/21 05:56:42;;;;;;;2.33;0.70;;;18.30;44.60;;;;;;4990170;28;92949;-74
2022/01/21 05:59:08;;;;;;;1.67;0.68;;;18.30;44.70;;;;;;4972759;28;92708;-75
2022/01/21 06:01:34;;;;;;;3.35;1.10;;;18.20;44.70;;;;;;4988187;28;95783;-75
2022/01/21 06:04:04;;;;;;;2.33;0.60;;;18.20;44.60;;;;;;4990071;28;95659;-75
2022/01/21 06:06:30;;;;;;;2.08;0.70;;;18.20;44.70;;;;;;4990362;28;92445;-75
2022/01/21 06:08:56;;;;;;;2.08;0.73;;;18.20;44.80;;;;;;4990219;28;92946;-75
2022/01/21 06:11:22;;;;;;;1.77;0.60;;;18.10;44.80;;;;;;4990329;28;93079;-75
2022/01/21 06:13:50;;;;;;;3.25;0.88;;;18.10;44.90;;;;;;4992154;28;93033;-76
2022/01/21 06:16:17;;;;;;;3.10;0.75;;;18.00;44.90;;;;;;4993290;28;93126;-75
2022/01/21 06:18:43;;;;;;;3.40;0.93;;;18.00;45.10;;;;;;4994001;28;91906;-74
2022/01/21 06:21:09;;;;;;;2.40;0.70;;;18.00;45.50;;;;;;4993422;28;93354;-74
2022/01/21 06:23:35;;;;;;;2.35;0.60;;;18.00;45.60;;;;;;4993432;28;92682;-74
2022/01/21 06:26:02;;;;;;;3.00;0.60;;;17.90;45.70;;;;;;4992752;28;95016;-74
2022/01/21 06:28:27;;;;;;;3.42;0.80;;;17.90;45.80;;;;;;4992991;28;94268;-74
2022/01/21 06:30:53;;;;;;;2.67;0.82;;;17.80;45.90;;;;;;4993354;28;93767;-74
2022/01/21 06:33:23;;;;;;;1.50;0.73;;;17.80;46.00;;;;;;4993275;28;93020;-75
2022/01/21 06:35:50;;;;;;;2.30;0.80;;;17.70;46.30;;;;;;4992880;28;92474;-75
2022/01/21 06:38:16;;;;;;;1.58;0.63;;;17.70;46.40;;;;;;4993566;28;92748;-74
2022/01/21 06:40:42;;;;;;;2.22;0.85;;;17.70;46.40;;;;;;4992504;28;93255;-74
2022/01/21 06:43:07;;;;;;;2.30;0.80;;;17.60;46.50;;;;;;4992400;28;92974;-74
2022/01/21 06:45:33;;;;;;;2.63;0.65;;;17.60;46.60;;;;;;4992426;28;92865;-73
2022/01/21 06:47:59;;;;;;;3.63;0.80;;;17.60;46.60;;;;;;4993217;28;92956;-74
2022/01/21 06:50:28;;;;;;;4.88;0.70;;;17.50;46.40;;;;;;4992253;28;95305;-75
2022/01/21 06:52:54;;;;;;;5.95;1.02;;;17.50;46.40;;;;;;4992034;28;99237;-73
2022/01/21 06:55:20;;;;;;;3.85;1.20;;;17.50;46.50;;;;;;4992468;28;93101;-74
2022/01/21 06:57:45;;;;;;;4.13;1.00;;;17.40;46.50;;;;;;4992803;28;92666;-74
2022/01/21 07:00:16;;;;;;;1.88;0.75;;;17.50;46.60;;;;;;4992513;28;92976;-74
2022/01/21 07:02:42;;;;;;;2.53;0.70;;;17.50;46.80;;;;;;4992394;28;94754;-73
2022/01/21 07:05:08;;;;;;;3.67;1.20;;;17.50;46.80;;;;;;4992136;28;92849;-77
2022/01/21 07:07:33;;;;;;;3.40;0.90;;;17.50;47.00;;;;;;4993119;28;92619;-76
2022/01/21 07:10:00;;;;;;;7.75;1.13;;;17.60;47.00;;;;;;4991923;28;93052;-76
2022/01/21 07:12:27;;;;;;;5.13;0.90;;;17.60;47.00;;;;;;4992615;28;92608;-75
2022/01/21 07:14:53;;;;;;;7.07;1.08;;;17.70;47.10;;;;;;4991654;28;95256;-74
2022/01/21 07:17:18;;;;;;;4.03;0.98;;;17.70;47.10;;;;;;4991898;28;92768;-74
2022/01/21 07:19:44;;;;;;;2.33;0.88;;;17.70;47.30;;;;;;4991925;28;93543;-74
2022/01/21 07:22:10;;;;;;;6.05;1.70;;;17.80;48.30;;;;;;4992105;28;92958;-74
2022/01/21 07:24:35;;;;;;;5.25;1.05;;;17.80;47.20;;;;;;4991312;28;92826;-76
2022/01/21 07:27:01;;;;;;;5.65;1.20;;;17.90;47.20;;;;;;4993204;28;93037;-75
2022/01/21 07:29:26;;;;;;;4.22;1.00;;;17.90;47.20;;;;;;4992427;28;93068;-74
2022/01/21 07:31:54;;;;;;;7.82;1.25;;;18.00;47.20;;;;;;4993106;28;94769;-74
2022/01/21 07:34:25;;;;;;;7.18;1.20;;;18.00;47.10;;;;;;4993074;28;92952;-73
2022/01/21 07:36:52;;;;;;;6.97;1.00;;;18.00;47.00;;;;;;4992601;28;92985;-73
2022/01/21 07:39:17;;;;;;;3.03;0.80;;;18.10;46.90;;;;;;4990147;28;95912;-73
2022/01/21 07:41:44;;;;;;;6.03;1.08;;;18.00;46.80;;;;;;4992238;28;96172;-73
2022/01/21 07:44:10;;;;;;;6.78;1.17;;;18.10;46.50;;;;;;4991515;28;92614;-73
2022/01/21 07:46:35;;;;;;;5.63;1.02;;;18.10;46.20;;;;;;4991966;28;92681;-73
2022/01/21 07:49:02;;;;;;;3.83;1.10;;;18.10;45.90;;;;;;4992566;28;93469;-73
2022/01/21 07:51:27;;;;;;;9.27;1.10;;;18.10;45.70;;;;;;4992137;28;92789;-72
2022/01/21 07:53:53;;;;;;;2.78;0.82;;;18.10;45.60;;;;;;4991569;28;92658;-73
2022/01/21 07:56:19;;;;;;;3.90;0.85;;;18.20;45.40;;;;;;4974245;28;92404;-73
2022/01/21 07:58:45;;;;;;;5.68;1.10;;;18.20;45.20;;;;;;4993179;28;93062;-73
2022/01/21 08:01:12;;;;;;;4.72;1.52;;;18.20;45.00;;;;;;4975722;28;92867;-72
2022/01/21 08:03:38;;;;;;;3.53;1.00;;;18.20;44.80;;;;;;4995572;28;95123;-73
2022/01/21 08:06:05;;;;;;;5.72;1.15;;;18.20;44.70;;;;;;4996570;28;92601;-73
2022/01/21 08:08:31;;;;;;;7.60;1.27;;;18.20;44.40;;;;;;4992618;28;93072;-73
2022/01/21 08:10:56;;;;;;;6.45;1.20;;;18.20;44.20;;;;;;4992617;28;93330;-73
2022/01/21 08:13:23;;;;;;;5.63;1.00;;;18.30;44.10;;;;;;4991973;28;92806;-73
2022/01/21 08:15:49;;;;;;;2.55;1.00;;;18.30;44.00;;;;;;4991458;28;92738;-73
2022/01/21 08:18:16;;;;;;;4.30;1.27;;;18.30;43.90;;;;;;4990771;28;93043;-72
2022/01/21 08:20:43;;;;;;;5.03;1.00;;;18.40;44.00;;;;;;4991687;28;92999;-74
2022/01/21 08:23:10;;;;;;;3.50;0.90;;;18.40;43.80;;;;;;4991104;28;92691;-73
2022/01/21 08:25:36;;;;;;;5.15;1.00;;;18.40;43.50;;;;;;4991890;28;93637;-73
2022/01/21 08:28:02;;;;;;;4.55;1.02;;;18.30;44.40;;;;;;4989667;28;95218;-73
2022/01/21 08:30:27;;;;;;;4.95;1.40;;;18.30;43.40;;;;;;4990245;28;96010;-72
2022/01/21 08:32:53;;;;;;;3.80;1.30;;;18.30;43.40;;;;;;4991308;28;92589;-72
2022/01/21 08:35:18;;;;;;;2.28;0.73;;;18.30;43.40;;;;;;4991971;28;92805;-74
2022/01/21 08:37:44;;;;;;;4.00;1.13;;;18.30;43.30;;;;;;4989766;28;93117;-73
2022/01/21 08:40:10;;;;;;;5.65;1.30;;;18.30;43.20;;;;;;4990678;28;93452;-73
2022/01/21 08:42:36;;;;;;;3.22;1.00;;;18.30;43.00;;;;;;4991851;28;92517;-73
2022/01/21 08:45:02;;;;;;;4.40;1.20;;;18.30;43.00;;;;;;4991874;28;92387;-73
2022/01/21 08:47:28;;;;;;;4.10;1.20;;;18.30;43.20;;;;;;4990874;28;93652;-73
2022/01/21 08:49:56;;;;;;;3.55;0.85;;;18.30;43.00;;;;;;4990557;28;93288;-74
2022/01/21 08:52:26;;;;;;;5.32;1.38;;;18.30;43.00;;;;;;4989868;28;95115;-73
2022/01/21 08:54:52;;;;;;;4.10;1.10;;;18.30;43.00;;;;;;4990885;28;92725;-73
2022/01/21 08:57:19;;;;;;;5.55;1.35;;;18.30;42.90;;;;;;4990067;28;95897;-73
2022/01/21 08:59:46;;;;;;;5.20;1.42;;;18.30;42.70;;;;;;4990373;28;93892;-73
2022/01/21 09:02:12;;;;;;;3.78;1.20;;;18.40;42.70;;;;;;4991445;28;93010;-73
2022/01/21 09:04:37;;;;;;;5.75;1.38;;;18.40;42.60;;;;;;4991126;28;92842;-73
2022/01/21 09:07:04;;;;;;;5.43;1.35;;;18.40;42.60;;;;;;4990883;28;92757;-73
2022/01/21 09:09:29;;;;;;;5.80;1.52;;;18.50;42.60;;;;;;4991177;28;92873;-73
2022/01/21 09:11:59;;;;;;;5.18;1.42;;;18.50;42.50;;;;;;4991134;28;92816;-73
2022/01/21 09:14:29;;;;;;;4.32;1.25;;;18.50;42.40;;;;;;4990836;28;92929;-73
2022/01/21 09:16:56;;;;;;;3.83;1.20;;;18.50;42.40;;;;;;4989866;28;95542;-73
2022/01/21 09:19:23;;;;;;;3.80;1.10;;;18.50;42.30;;;;;;4991328;28;95257;-74
2022/01/21 09:21:51;;;;;;;6.78;1.75;;;18.50;42.30;;;;;;4990678;28;92514;-73
2022/01/21 09:24:18;;;;;;;4.47;1.58;;;18.40;42.30;;;;;;4991938;28;92808;-73
2022/01/21 09:26:44;;;;;;;3.92;1.38;;;18.40;42.40;;;;;;4991073;28;93620;-73
2022/01/21 09:29:10;;;;;;;4.00;1.30;;;18.30;42.40;;;;;;4989923;28;92900;-73
2022/01/21 09:31:37;;;;;;;5.97;1.40;;;18.30;42.50;;;;;;4991833;28;92938;-73
2022/01/21 09:34:05;;;;;;;5.78;1.50;;;18.20;42.50;;;;;;4990785;28;92104;-73
2022/01/21 09:36:30;;;;;;;4.32;1.40;;;18.20;42.60;;;;;;4989680;28;93007;-73
2022/01/21 09:38:56;;;;;;;4.95;1.65;;;18.10;42.70;;;;;;4990690;28;93020;-73
2022/01/21 09:41:22;;;;;;;6.40;1.60;;;18.10;42.80;;;;;;4989423;28;94928;-73
2022/01/21 09:43:52;;;;;;;4.43;1.42;;;18.00;42.90;;;;;;4990106;28;93020;-73
2022/01/21 09:46:33;;;;;;;4.75;1.58;;;18.00;43.00;;;;;;4992727;28;93078;-73
2022/01/21 09:49:07;;;;;;;4.25;1.50;;;18.00;43.10;;;;;;4996560;28;93333;-73
2022/01/21 09:51:36;;;;;;;6.47;1.52;;;17.90;43.20;;;;;;4998756;28;92467;-73
2022/01/21 09:54:07;;;;;;;5.45;1.70;;;17.90;43.40;;;;;;4997289;28;93008;-73
2022/01/21 09:56:34;;;;;;;5.35;1.42;;;17.80;43.50;;;;;;4997267;28;93685;-73
2022/01/21 09:59:00;;;;;;;6.15;1.63;;;17.70;43.60;;;;;;4993715;28;93246;-74
2022/01/21 10:01:26;;;;;;;7.30;1.80;;;17.70;43.60;;;;;;4993849;28;92836;-73
2022/01/21 10:03:53;;;;;;;5.13;1.63;;;17.60;43.60;;;;;;4994295;28;93733;-74
2022/01/21 10:06:22;;;;;;;5.43;1.42;;;17.60;43.80;;;;;;4992375;28;95287;-73
2022/01/21 10:08:49;;;;;;;4.60;1.48;;;17.50;44.00;;;;;;4992911;28;95042;-73
2022/01/21 10:11:15;;;;;;;4.88;1.70;;;17.50;44.00;;;;;;4993220;28;93196;-73
2022/01/21 10:13:43;;;;;;;5.97;1.60;;;17.50;44.10;;;;;;4975292;28;92730;-73
2022/01/21 10:16:09;;;;;;;5.88;1.77;;;17.60;44.20;;;;;;4993787;28;93157;-74
2022/01/21 10:18:35;;;;;;;5.22;1.77;;;17.60;44.20;;;;;;4994069;28;93345;-74
2022/01/21 10:21:13;;;;;;;4.78;1.42;;;17.70;44.10;;;;;;4974825;28;93035;-74
2022/01/21 10:23:41;;;;;;;6.22;1.70;;;17.90;43.70;;;;;;4975437;28;92240;-74
2022/01/21 10:26:10;;;;;;;5.65;1.70;;;18.00;43.80;;;;;;4992962;28;93309;-74
2022/01/21 10:28:42;;;;;;;4.70;1.70;;;18.00;43.60;;;;;;4993178;28;93161;-73
2022/01/21 10:31:13;;;;;;;4.60;1.73;;;18.20;43.60;;;;;;4991386;28;94953;-74
2022/01/21 10:33:49;;;;;;;5.03;1.70;;;18.20;43.40;;;;;;4992821;28;93044;-74
2022/01/21 10:36:26;;;;;;;4.82;1.42;;;18.30;43.30;;;;;;4993414;28;93602;-74
2022/01/21 10:38:57;;;;;;;3.78;1.15;;;18.40;43.20;;;;;;4993279;28;93297;-73
2022/01/21 10:41:30;;;;;;;4.22;1.20;;;18.50;43.10;;;;;;4992843;28;92556;-73
2022/01/21 10:44:21;;;;;;;5.95;1.70;;;18.50;43.10;;;;;;4991623;28;92715;-74
2022/01/21 10:47:08;;;;;;;4.55;1.65;;;18.50;43.00;;;;;;4988600;28;93435;-74
2022/01/21 10:49:39;;;;;;;7.00;1.65;;;18.70;43.00;;;;;;4993779;28;92806;-74
2022/01/21 10:52:05;;;;;;;5.93;1.58;;;18.70;42.90;;;;;;4992587;28;92951;-74
2022/01/21 10:54:31;;;;;;;5.35;1.55;;;18.70;42.80;;;;;;4993050;28;92608;-74
2022/01/21 10:57:08;;;;;;;5.07;1.50;;;18.70;42.80;;;;;;4991013;28;95407;-74
2022/01/21 11:00:02;;;;;;;4.63;1.10;;;18.70;42.80;;;;;;4991402;28;94015;-74
2022/01/21 11:02:53;;;;;;;5.35;1.80;;;18.70;42.90;;;;;;4993036;28;92859;-74
2022/01/21 11:05:24;;;;;;;6.60;1.45;;;18.70;42.90;;;;;;4993196;28;93138;-74
2022/01/21 11:08:02;;;;;;;6.07;1.60;;;18.60;43.10;;;;;;4991882;28;94132;-74
2022/01/21 11:10:37;;;;;;;5.22;1.52;;;18.60;43.10;;;;;;4991376;28;93352;-73
2022/01/21 11:13:27;;;;;;;6.00;1.52;;;18.60;43.10;;;;;;4991960;28;93056;-74
2022/01/21 11:15:58;;;;;;;6.15;1.52;;;18.70;43.20;;;;;;4992900;28;92286;-74
2022/01/21 11:18:26;;;;;;;6.00;1.52;;;18.70;43.10;;;;;;4992443;28;92973;-74
2022/01/21 11:20:59;;;;;;;4.70;1.35;;;18.70;43.10;;;;;;4991894;28;93174;-72
2022/01/21 11:23:27;;;;;;;6.68;1.60;;;18.70;43.00;;;;;;4991505;28;95475;-73
2022/01/21 11:25:57;;;;;;;7.43;1.50;;;18.80;43.10;;;;;;4992722;28;92600;-75
2022/01/21 11:28:25;;;;;;;6.93;1.90;;;18.80;43.10;;;;;;4992177;28;94167;-72
2022/01/21 11:30:53;;;;;;;7.05;1.35;;;18.80;43.10;;;;;;4991745;28;92819;-72
2022/01/21 11:33:20;;;;;;;7.70;1.88;;;18.90;43.20;;;;;;4992401;28;92614;-75
2022/01/21 11:35:51;;;;;;;9.05;1.60;;;19.00;43.50;;;;;;4996868;28;92545;-74
2022/01/21 11:38:18;;;;;;;9.00;2.08;;;19.00;43.60;;;;;;4995835;28;95411;-73
2022/01/21 11:40:51;;;;;;;9.40;2.10;;;19.00;43.70;;;;;;4994241;28;93305;-73
2022/01/21 11:43:18;;;;;;;12.00;1.60;;;19.10;43.80;;;;;;4992080;28;92623;-72
2022/01/21 11:48:51;;;;;;;10.13;1.73;;;19.20;44.00;;;;;;4990300;28;95391;-74
2022/01/21 11:51:32;;;;;;;5.25;1.50;;;19.20;44.30;;;;;;4992049;28;95369;-74
2022/01/21 11:54:13;;;;;;;7.32;1.50;;;19.20;44.40;;;;;;4990948;28;92908;-74
2022/01/21 11:56:46;;;;;;;8.63;1.58;;;19.20;44.80;;;;;;4991974;28;92496;-74
2022/01/21 12:01:52;;;;;;;6.40;1.80;;;19.30;44.90;;;;;;4991891;28;92934;-73
2022/01/21 12:04:29;;;;;;;13.10;2.15;;;19.30;45.00;;;;;;4992121;28;93010;-74
2022/01/21 12:06:59;;;;;;;8.10;1.58;;;19.30;45.30;;;;;;4992899;28;92215;-75
2022/01/21 12:09:53;;;;;;;9.40;1.92;;;19.30;45.30;;;;;;4992304;28;93220;-75
2022/01/21 12:12:19;;;;;;;9.73;1.92;;;19.40;45.40;;;;;;4992495;28;93784;-75
2022/01/21 12:14:51;;;;;;;8.10;1.40;;;19.40;46.40;;;;;;4990484;28;95333;-75
2022/01/21 12:17:36;;;;;;;7.25;1.40;;;19.40;45.30;;;;;;4992021;28;93068;-74
2022/01/21 12:20:06;;;;;;;11.00;1.60;;;19.40;45.30;;;;;;4991341;28;94109;-74
2022/01/21 12:22:32;;;;;;;10.05;1.60;;;19.40;45.30;;;;;;4991375;28;92856;-74
2022/01/21 12:25:07;;;;;;;6.45;1.90;;;19.40;45.40;;;;;;4991252;28;92834;-74
2022/01/21 12:27:33;;;;;;;6.03;1.40;;;19.40;45.50;;;;;;4991184;28;92988;-74
2022/01/21 12:30:29;;;;;;;6.68;1.70;;;19.30;45.50;;;;;;4990870;28;93659;-75
2022/01/21 12:33:07;;;;;;;8.55;1.80;;;19.40;45.50;;;;;;4963380;28;93407;-73
2022/01/21 12:35:33;;;;;;;7.60;1.80;;;19.40;46.40;;;;;;4990474;28;92540;-74
2022/01/21 12:41:04;;;;;;;6.40;1.55;;;19.40;45.40;;;;;;4989201;28;95355;-74
2022/01/21 12:43:36;;;;;;;6.13;1.63;;;19.50;45.40;;;;;;4989737;28;95792;-74
2022/01/21 12:46:04;;;;;;;8.55;1.65;;;19.50;45.30;;;;;;4991299;28;92967;-74
2022/01/21 12:48:34;;;;;;;7.05;1.77;;;19.50;45.20;;;;;;4990724;28;92823;-74
2022/01/21 12:51:14;;;;;;;5.22;1.40;;;19.60;45.30;;;;;;4990371;28;93155;-74
2022/01/21 12:55:55;;;;;;;5.60;1.48;;;19.50;45.20;;;;;;4990184;28;94132;-74
2022/01/21 12:56:27;;;;;;;5.13;1.67;;;19.50;45.20;;;;;;4990251;28;92881;-74
2022/01/21 12:58:53;;;;;;;6.95;1.70;;;19.50;46.30;;;;;;4992151;28;91754;-74
2022/01/21 13:01:19;;;;;;;6.65;1.70;;;19.40;45.30;;;;;;4990746;28;93087;-74
2022/01/21 13:04:01;;;;;;;5.57;1.85;;;19.40;45.50;;;;;;4990356;28;93520;-74
2022/01/21 13:06:55;;;;;;;4.22;1.35;;;19.40;45.50;;;;;;4990303;28;95129;-74
2022/01/21 13:09:50;;;;;;;8.60;1.50;;;19.40;45.50;;;;;;4991469;28;92987;-73
2022/01/21 13:12:16;;;;;;;5.70;1.50;;;19.40;45.50;;;;;;4989478;28;93203;-73
2022/01/21 13:14:55;;;;;;;7.35;2.17;;;19.40;45.50;;;;;;4990392;28;93013;-73
2022/01/21 13:17:21;;;;;;;5.38;1.60;;;19.40;45.40;;;;;;4991177;28;93617;-73
2022/01/21 13:19:55;;;;;;;6.30;1.70;;;19.50;45.50;;;;;;4992005;28;92824;-73
2022/01/21 13:22:36;;;;;;;7.55;2.00;;;19.50;45.40;;;;;;4993040;28;93765;-74
2022/01/21 13:25:13;;;;;;;7.57;1.45;;;19.50;45.30;;;;;;4994079;28;94653;-73
2022/01/21 13:27:47;;;;;;;4.75;1.40;;;19.60;45.30;;;;;;4993080;28;92833;-74
2022/01/21 13:30:16;;;;;;;4.32;1.27;;;19.60;45.20;;;;;;4991071;28;94500;-74
2022/01/21 13:32:42;;;;;;;6.53;1.48;;;19.60;45.10;;;;;;4990580;28;95588;-74
2022/01/21 13:35:13;;;;;;;3.50;1.10;;;19.60;45.20;;;;;;4990737;28;95027;-75
2022/01/21 13:37:42;;;;;;;4.93;1.58;;;19.50;45.20;;;;;;4990958;28;93967;-75
2022/01/21 13:40:09;;;;;;;6.00;1.70;;;19.50;45.30;;;;;;4990080;28;92775;-73
2022/01/21 13:42:36;;;;;;;4.28;1.50;;;19.40;45.30;;;;;;4989675;28;94241;-74
2022/01/21 13:45:08;;;;;;;3.95;1.50;;;19.40;45.40;;;;;;4987004;28;95845;-74
2022/01/21 13:47:47;;;;;;;5.23;1.43;;;19.30;45.50;;;;;;4991718;28;92922;-75
2022/01/21 13:50:14;;;;;;;5.63;1.60;;;19.20;45.60;;;;;;4991525;28;91990;-73
2022/01/21 13:52:40;;;;;;;8.18;1.80;;;19.20;45.70;;;;;;4990959;28;92961;-78
2022/01/21 13:55:08;;;;;;;4.97;1.50;;;19.10;45.70;;;;;;4989922;28;93526;-71
2022/01/21 13:57:33;;;;;;;7.55;2.05;;;19.10;45.90;;;;;;4989210;28;95256;-74
2022/01/21 13:59:59;;;;;;;15.60;1.95;;;19.00;46.10;;;;;;4990165;28;92510;-72
2022/01/21 14:02:25;;;;;;;12.40;2.00;;;18.90;46.40;;;;;;4990175;28;93030;-72
2022/01/21 14:05:01;;;;;;;10.07;1.95;;;18.90;46.80;;;;;;4988956;28;93247;-71
2022/01/21 14:07:32;;;;;;;9.52;1.90;;;18.80;46.70;;;;;;4989850;28;93041;-78
2022/01/21 14:10:02;;;;;;;5.80;1.70;;;18.70;46.70;;;;;;4990141;28;92512;-70
2022/01/21 14:12:30;;;;;;;11.50;1.60;;;18.70;46.80;;;;;;4989706;28;94152;-72
2022/01/21 14:14:56;;;;;;;11.55;2.08;;;18.70;47.00;;;;;;4989468;28;92721;-72
2022/01/21 14:17:25;;;;;;;8.30;1.90;;;18.60;47.20;;;;;;4990044;28;92870;-73
2022/01/21 14:19:55;;;;;;;9.05;1.63;;;18.60;47.50;;;;;;4990486;28;93032;-73
2022/01/21 14:22:22;;;;;;;14.15;2.00;;;18.60;47.80;;;;;;4988615;28;95963;-73
2022/01/21 14:24:51;;;;;;;8.15;1.52;;;18.50;47.90;;;;;;4988443;28;95657;-73
2022/01/21 14:27:21;;;;;;;9.25;1.90;;;18.40;48.00;;;;;;4988591;28;92573;-73
2022/01/21 14:29:54;;;;;;;8.35;1.83;;;18.40;48.10;;;;;;4990805;28;92714;-73
2022/01/21 14:32:38;;;;;;;11.25;2.35;;;18.40;48.30;;;;;;4990849;28;93602;-73
2022/01/21 14:35:25;;;;;;;7.38;2.00;;;18.30;48.20;;;;;;4990572;28;92896;-73
2022/01/21 14:37:55;;;;;;;11.25;2.20;;;18.30;48.40;;;;;;4993927;28;92919;-72
2022/01/21 14:40:31;;;;;;;9.73;1.80;;;18.20;48.40;;;;;;4993245;28;92316;-73
2022/01/21 14:43:22;;;;;;;8.57;1.90;;;18.20;48.50;;;;;;4993370;28;93196;-72
2022/01/21 14:46:22;;;;;;;8.63;1.75;;;18.20;48.60;;;;;;4993172;28;94524;-74
2022/01/21 14:49:02;;;;;;;9.13;1.90;;;18.10;48.50;;;;;;4992619;28;95275;-73
2022/01/21 14:51:37;;;;;;;5.32;1.33;;;18.00;48.70;;;;;;4993970;28;92539;-72
2022/01/21 14:54:09;;;;;;;7.15;1.83;;;18.00;48.80;;;;;;4992799;28;94554;-73
2022/01/21 14:56:34;;;;;;;8.60;1.88;;;18.00;48.80;;;;;;4993513;28;92649;-72
2022/01/21 14:59:15;;;;;;;7.07;1.50;;;17.90;48.90;;;;;;4992805;28;92579;-73
2022/01/21 15:02:07;;;;;;;9.63;1.90;;;17.90;48.80;;;;;;4993115;28;94153;-73
2022/01/21 15:04:37;;;;;;;4.38;1.50;;;17.90;48.90;;;;;;4992746;28;92815;-73
2022/01/21 15:07:11;;;;;;;9.35;2.25;;;17.80;48.90;;;;;;4995332;28;93631;-73
2022/01/21 15:09:47;;;;;;;5.47;1.40;;;17.80;48.90;;;;;;4998110;28;92695;-72
2022/01/21 15:15:28;;;;;;;;;;;17.70;48.90;;;;;;4994472;28;95048;-73
2022/01/21 15:17:54;;;;;;;5.32;1.45;;;17.60;49.00;;;;;;4994697;28;93646;-74
2022/01/21 15:20:31;;;;;;;7.47;1.70;;;17.60;49.10;;;;;;4975522;28;92615;-74
2022/01/21 15:22:58;;;;;;;6.95;1.80;;;17.60;49.10;;;;;;4992613;28;92802;-73
2022/01/21 15:25:23;;;;;;;5.53;1.67;;;17.60;49.20;;;;;;4992152;28;92993;-73
2022/01/21 15:27:50;;;;;;;6.63;1.73;;;17.50;49.20;;;;;;4991499;28;92764;-74
2022/01/21 15:30:17;;;;;;;6.20;2.20;;;17.50;49.20;;;;;;4992636;28;92853;-73
2022/01/21 15:32:43;;;;;;;8.00;1.65;;;17.50;49.30;;;;;;4993352;28;92341;-73